createdAt,value
2019-05-06T00:00:24.560Z,96.40
2019-05-06T00:01:04.647Z,96.40
2019-05-06T00:01:44.112Z,96.40
2019-05-06T00:02:24.446Z,96.40
2019-05-06T00:03:02.108Z,96.40
2019-05-06T00:03:40.493Z,96.60
2019-05-06T00:04:18.841Z,96.60
2019-05-06T00:04:57.235Z,96.50
2019-05-06T00:05:35.617Z,96.50
2019-05-06T00:06:14.515Z,96.60
2019-05-06T00:06:54.600Z,96.60
2019-05-06T00:07:33.961Z,96.70
2019-05-06T00:08:14.342Z,96.70
2019-05-06T00:08:54.381Z,97.00
2019-05-06T00:09:32.083Z,96.80
2019-05-06T00:10:13.552Z,96.80
2019-05-06T00:10:54.089Z,96.80
2019-05-06T00:11:31.764Z,96.80
2019-05-06T00:12:10.187Z,96.80
2019-05-06T00:12:48.775Z,96.80
2019-05-06T00:13:27.147Z,96.80
2019-05-06T00:14:05.526Z,96.80
2019-05-06T00:14:43.885Z,96.90
2019-05-06T00:15:23.457Z,97.00
2019-05-06T00:16:03.809Z,97.00
2019-05-06T00:16:43.990Z,97.00
2019-05-06T00:17:23.952Z,96.90
2019-05-06T00:18:04.527Z,97.10
2019-05-06T00:18:44.734Z,97.10
2019-05-06T00:19:24.509Z,97.20
2019-05-06T00:20:04.237Z,97.10
2019-05-06T00:20:43.838Z,97.10
2019-05-06T00:21:24.202Z,97.10
2019-05-06T00:22:01.960Z,97.10
2019-05-06T00:22:40.286Z,97.10
2019-05-06T00:23:24.932Z,97.10
2019-05-06T00:24:03.905Z,97.10
2019-05-06T00:24:48.654Z,97.10
2019-05-06T00:25:37.707Z,97.00
2019-05-06T00:26:34.020Z,97.20
2019-05-06T00:27:17.459Z,97.10
2019-05-06T00:28:19.854Z,97.00
2019-05-06T00:29:01.267Z,96.80
2019-05-06T00:29:39.651Z,97.10
2019-05-06T00:30:18.813Z,97.10
2019-05-06T00:31:09.368Z,97.10
2019-05-06T00:31:37.654Z,97.10
2019-05-06T00:32:16.807Z,97.10
2019-05-06T00:32:55.199Z,97.20
2019-05-06T00:33:34.110Z,97.40
2019-05-06T00:34:13.873Z,97.40
2019-05-06T00:34:54.463Z,97.40
2019-05-06T00:35:34.154Z,97.30
2019-05-06T00:36:14.036Z,97.40
2019-05-06T00:36:51.807Z,97.40
2019-05-06T00:37:30.534Z,97.50
2019-05-06T00:38:08.921Z,98.10
2019-05-06T00:38:48.897Z,97.60
2019-05-06T00:39:46.223Z,97.20
2019-05-06T00:40:29.427Z,97.50
2019-05-06T00:41:09.257Z,97.70
2019-05-06T00:41:50.345Z,97.50
2019-05-06T00:42:54.218Z,97.50
2019-05-06T00:43:34.422Z,97.40
2019-05-06T00:44:14.292Z,97.70
2019-05-06T00:44:53.734Z,97.70
2019-05-06T00:45:33.991Z,97.60
2019-05-06T00:46:13.876Z,97.50
2019-05-06T00:46:52.054Z,97.60
2019-05-06T00:47:30.458Z,97.90
2019-05-06T00:48:08.838Z,98.30
2019-05-06T00:48:47.191Z,97.50
2019-05-06T00:49:25.508Z,97.80
2019-05-06T00:50:04.234Z,97.80
2019-05-06T00:50:44.118Z,97.80
2019-05-06T00:51:24.146Z,97.70
2019-05-06T00:52:04.208Z,97.70
2019-05-06T00:52:44.582Z,97.30
2019-05-06T00:53:23.964Z,97.30
2019-05-06T00:54:11.487Z,97.50
2019-05-06T00:54:49.893Z,97.50
2019-05-06T00:55:28.212Z,97.70
2019-05-06T00:56:06.553Z,97.60
2019-05-06T00:56:45.029Z,97.90
2019-05-06T00:57:25.140Z,97.60
2019-05-06T00:58:04.079Z,97.50
2019-05-06T00:58:43.613Z,97.60
2019-05-06T00:59:23.840Z,97.50
2019-05-06T01:00:04.051Z,97.80
2019-05-06T01:00:41.805Z,97.70
2019-05-06T01:01:26.901Z,97.60
2019-05-06T01:02:00.091Z,97.40
2019-05-06T01:02:40.087Z,97.40
2019-05-06T01:03:18.418Z,97.40
2019-05-06T01:03:56.784Z,97.50
2019-05-06T01:04:35.139Z,97.50
2019-05-06T01:05:13.866Z,97.40
2019-05-06T01:05:54.250Z,97.40
2019-05-06T01:06:34.331Z,97.70
2019-05-06T01:07:13.903Z,97.70
2019-05-06T01:07:54.723Z,97.60
2019-05-06T01:08:34.649Z,97.40
2019-05-06T01:09:14.143Z,97.40
2019-05-06T01:09:54.151Z,97.30
2019-05-06T01:10:34.353Z,97.30
2019-05-06T01:11:14.403Z,97.10
2019-05-06T01:11:54.198Z,97.00
2019-05-06T01:12:34.570Z,97.00
2019-05-06T01:13:18.398Z,97.00
2019-05-06T01:14:04.023Z,97.00
2019-05-06T01:14:45.961Z,97.00
2019-05-06T01:15:24.869Z,96.90
2019-05-06T01:16:04.225Z,96.90
2019-05-06T01:16:43.979Z,96.80
2019-05-06T01:17:24.320Z,96.60
2019-05-06T01:18:05.325Z,96.60
2019-05-06T01:18:44.571Z,96.60
2019-05-06T01:19:25.769Z,96.50
2019-05-06T01:20:16.659Z,96.60
2019-05-06T01:21:13.921Z,96.70
2019-05-06T01:21:53.994Z,96.70
2019-05-06T01:22:35.091Z,96.80
2019-05-06T01:23:15.530Z,96.90
2019-05-06T01:23:57.206Z,97.00
2019-05-06T01:24:38.677Z,97.00
2019-05-06T01:25:19.445Z,97.10
2019-05-06T01:26:04.283Z,97.20
2019-05-06T01:26:45.738Z,97.40
2019-05-06T01:27:28.265Z,97.40
2019-05-06T01:28:08.339Z,97.50
2019-05-06T01:28:48.583Z,97.60
2019-05-06T01:29:26.957Z,97.60
2019-05-06T01:30:05.531Z,97.40
2019-05-06T01:30:44.372Z,97.20
2019-05-06T01:31:24.724Z,97.00
2019-05-06T01:32:03.671Z,97.00
2019-05-06T01:32:43.617Z,96.80
2019-05-06T01:33:24.131Z,96.40
2019-05-06T01:34:04.310Z,96.50
2019-05-06T01:34:44.530Z,96.50
2019-05-06T01:35:24.425Z,96.60
2019-05-06T01:36:02.234Z,96.60
2019-05-06T01:36:43.581Z,96.70
2019-05-06T01:37:23.622Z,96.80
2019-05-06T01:38:18.001Z,96.90
2019-05-06T01:39:13.860Z,97.00
2019-05-06T01:40:23.968Z,97.10
2019-05-06T01:41:24.365Z,97.40
2019-05-06T01:42:10.694Z,97.70
2019-05-06T01:43:05.404Z,99.40
2019-05-06T01:43:43.972Z,99.60
2019-05-06T01:44:24.296Z,99.70
2019-05-06T01:45:04.517Z,99.60
2019-05-06T01:45:43.904Z,99.50
2019-05-06T01:46:24.199Z,99.50
2019-05-06T01:47:03.660Z,99.40
2019-05-06T01:47:43.679Z,99.40
2019-05-06T01:48:39.654Z,99.50
2019-05-06T01:49:18.375Z,99.70
2019-05-06T01:49:56.761Z,99.90
2019-05-06T01:50:35.248Z,99.90
2019-05-06T01:51:14.316Z,99.90
2019-05-06T01:51:54.643Z,99.90
2019-05-06T01:52:34.350Z,99.90
2019-05-06T01:53:14.016Z,99.80
2019-05-06T01:53:54.479Z,99.90
2019-05-06T01:54:34.168Z,99.90
2019-05-06T01:55:14.031Z,99.90
2019-05-06T01:55:52.073Z,99.90
2019-05-06T01:56:30.642Z,99.90
2019-05-06T01:57:09.026Z,99.90
2019-05-06T01:57:47.436Z,99.90
2019-05-06T01:58:25.966Z,99.90
2019-05-06T01:59:04.707Z,99.90
2019-05-06T01:59:44.325Z,99.90
2019-05-06T02:00:23.712Z,99.90
2019-05-06T02:01:03.930Z,99.90
2019-05-06T02:01:54.866Z,99.90
2019-05-06T02:02:23.712Z,99.90
2019-05-06T02:03:03.602Z,99.90
2019-05-06T02:03:41.571Z,99.90
2019-05-06T02:04:20.060Z,99.90
2019-05-06T02:04:58.425Z,99.90
2019-05-06T02:05:36.797Z,99.90
2019-05-06T02:06:15.157Z,99.90
2019-05-06T02:06:54.564Z,99.90
2019-05-06T02:07:34.811Z,99.90
2019-05-06T02:08:13.499Z,99.90
2019-05-06T02:08:54.041Z,99.90
2019-05-06T02:09:34.029Z,99.90
2019-05-06T02:10:14.031Z,99.90
2019-05-06T02:10:54.547Z,99.90
2019-05-06T02:11:33.755Z,99.90
2019-05-06T02:12:13.779Z,99.90
2019-05-06T02:12:54.029Z,99.90
2019-05-06T02:13:32.167Z,99.90
2019-05-06T02:14:10.590Z,99.90
2019-05-06T02:14:48.950Z,99.90
2019-05-06T02:15:27.417Z,99.90
2019-05-06T02:16:05.760Z,99.90
2019-05-06T02:16:44.208Z,99.90
2019-05-06T02:17:23.923Z,99.90
2019-05-06T02:18:04.135Z,99.90
2019-05-06T02:18:44.605Z,99.90
2019-05-06T02:19:24.143Z,99.90
2019-05-06T02:20:04.066Z,99.90
2019-05-06T02:20:44.507Z,99.90
2019-05-06T02:21:39.083Z,99.90
2019-05-06T02:22:41.769Z,99.90
2019-05-06T02:23:24.131Z,99.80
2019-05-06T02:24:04.650Z,99.50
2019-05-06T02:24:53.639Z,99.30
2019-05-06T02:25:47.587Z,99.10
2019-05-06T02:26:25.949Z,98.80
2019-05-06T02:27:04.598Z,98.60
2019-05-06T02:27:44.503Z,98.10
2019-05-06T02:28:23.608Z,97.90
2019-05-06T02:29:04.280Z,98.00
2019-05-06T02:29:51.472Z,98.20
2019-05-06T02:30:56.915Z,98.20
2019-05-06T02:32:15.893Z,98.70
2019-05-06T02:32:55.396Z,98.60
2019-05-06T02:33:40.050Z,98.40
2019-05-06T02:34:26.161Z,98.50
2019-05-06T02:35:26.338Z,98.70
2019-05-06T02:36:09.820Z,98.70
2019-05-06T02:36:59.538Z,98.60
2019-05-06T02:37:40.081Z,98.60
2019-05-06T02:38:32.696Z,98.60
2019-05-06T02:39:06.004Z,98.70
2019-05-06T02:39:44.516Z,98.40
2019-05-06T02:40:25.396Z,98.50
2019-05-06T02:41:04.217Z,98.60
2019-05-06T02:41:42.970Z,98.60
2019-05-06T02:42:23.849Z,98.70
2019-05-06T02:43:03.318Z,98.70
2019-05-06T02:43:43.502Z,98.30
2019-05-06T02:44:23.915Z,98.40
2019-05-06T02:45:04.003Z,98.60
2019-05-06T02:45:43.357Z,98.90
2019-05-06T02:46:23.549Z,98.60
2019-05-06T02:47:13.702Z,98.70
2019-05-06T02:48:08.152Z,98.60
2019-05-06T02:49:13.083Z,98.60
2019-05-06T02:49:54.217Z,98.60
2019-05-06T02:50:39.230Z,98.70
2019-05-06T02:51:20.060Z,98.70
2019-05-06T02:51:58.476Z,98.80
2019-05-06T02:52:36.804Z,98.80
2019-05-06T02:53:15.544Z,98.70
2019-05-06T02:53:54.109Z,98.60
2019-05-06T02:54:34.460Z,98.40
2019-05-06T02:55:13.045Z,98.30
2019-05-06T02:55:53.144Z,98.40
2019-05-06T02:56:33.311Z,98.50
2019-05-06T02:57:13.137Z,98.50
2019-05-06T02:57:53.617Z,98.60
2019-05-06T02:58:33.113Z,98.60
2019-05-06T02:59:12.764Z,98.50
2019-05-06T02:59:50.457Z,98.60
2019-05-06T03:00:28.905Z,98.40
2019-05-06T03:01:07.335Z,98.30
2019-05-06T03:01:45.718Z,98.40
2019-05-06T03:02:38.681Z,98.30
2019-05-06T03:03:03.877Z,98.20
2019-05-06T03:03:43.612Z,98.10
2019-05-06T03:04:23.622Z,98.10
2019-05-06T03:05:04.356Z,98.20
2019-05-06T03:05:43.935Z,98.30
2019-05-06T03:06:23.761Z,98.40
2019-05-06T03:07:03.759Z,98.20
2019-05-06T03:07:43.456Z,98.30
2019-05-06T03:08:23.496Z,98.40
2019-05-06T03:09:02.979Z,98.70
2019-05-06T03:09:40.644Z,98.70
2019-05-06T03:10:19.269Z,98.80
2019-05-06T03:10:57.643Z,98.60
2019-05-06T03:11:35.997Z,99.00
2019-05-06T03:12:15.273Z,99.00
2019-05-06T03:12:53.878Z,98.90
2019-05-06T03:13:33.968Z,98.90
2019-05-06T03:14:13.911Z,98.90
2019-05-06T03:14:53.221Z,98.80
2019-05-06T03:15:34.243Z,98.80
2019-05-06T03:16:14.228Z,99.10
2019-05-06T03:16:53.798Z,98.90
2019-05-06T03:17:32.878Z,98.70
2019-05-06T03:18:14.310Z,98.40
2019-05-06T03:18:53.183Z,98.20
2019-05-06T03:19:33.910Z,98.20
2019-05-06T03:20:14.253Z,98.10
2019-05-06T03:21:00.586Z,98.60
2019-05-06T03:21:54.587Z,98.80
2019-05-06T03:23:03.732Z,98.80
2019-05-06T03:23:45.562Z,99.00
2019-05-06T03:24:32.945Z,99.00
2019-05-06T03:25:13.699Z,99.10
2019-05-06T03:25:53.232Z,99.20
2019-05-06T03:26:33.177Z,99.10
2019-05-06T03:27:14.131Z,99.20
2019-05-06T03:27:53.193Z,99.30
2019-05-06T03:28:33.347Z,99.50
2019-05-06T03:29:13.512Z,99.60
2019-05-06T03:29:53.574Z,99.70
2019-05-06T03:30:35.661Z,99.70
2019-05-06T03:31:15.642Z,99.70
2019-05-06T03:31:55.660Z,99.70
2019-05-06T03:32:37.546Z,99.80
2019-05-06T03:33:38.448Z,99.70
2019-05-06T03:34:16.218Z,99.50
2019-05-06T03:34:56.348Z,99.40
2019-05-06T03:35:31.218Z,99.40
2019-05-06T03:36:05.419Z,99.40
2019-05-06T03:36:39.386Z,99.20
2019-05-06T03:37:16.927Z,99.30
2019-05-06T03:37:53.304Z,99.30
2019-05-06T03:38:33.596Z,99.30
2019-05-06T03:39:13.878Z,99.30
2019-05-06T03:39:52.903Z,99.50
2019-05-06T03:40:36.066Z,99.50
2019-05-06T03:41:13.894Z,99.40
2019-05-06T03:41:53.463Z,99.40
2019-05-06T03:42:33.453Z,99.40
2019-05-06T03:43:13.171Z,99.50
2019-05-06T03:43:53.894Z,99.50
2019-05-06T03:44:32.907Z,99.50
2019-05-06T03:45:18.005Z,99.60
2019-05-06T03:46:14.329Z,99.60
2019-05-06T03:47:10.319Z,99.50
2019-05-06T03:47:55.464Z,99.60
2019-05-06T03:48:36.884Z,99.60
2019-05-06T03:49:15.285Z,99.70
2019-05-06T03:49:54.812Z,99.70
2019-05-06T03:50:36.405Z,99.70
2019-05-06T03:51:14.810Z,99.80
2019-05-06T03:51:56.015Z,99.90
2019-05-06T03:52:34.367Z,99.90
2019-05-06T03:53:14.047Z,99.80
2019-05-06T03:53:54.270Z,99.80
2019-05-06T03:54:34.303Z,99.80
2019-05-06T03:55:13.882Z,99.90
2019-05-06T03:55:53.974Z,99.90
2019-05-06T03:56:33.881Z,99.90
2019-05-06T03:57:13.844Z,99.90
2019-05-06T03:57:53.889Z,99.90
2019-05-06T03:58:34.472Z,99.90
2019-05-06T03:59:13.311Z,99.90
2019-05-06T03:59:52.902Z,99.90
2019-05-06T04:00:35.302Z,99.90
2019-05-06T04:01:13.779Z,99.90
2019-05-06T04:01:53.451Z,99.70
2019-05-06T04:02:33.631Z,99.40
2019-05-06T04:03:14.061Z,99.40
2019-05-06T04:03:56.082Z,99.50
2019-05-06T04:04:33.246Z,99.20
2019-05-06T04:05:13.286Z,99.10
2019-05-06T04:05:52.475Z,99.00
2019-05-06T04:06:33.277Z,99.30
2019-05-06T04:07:13.665Z,99.30
2019-05-06T04:07:53.079Z,99.30
2019-05-06T04:08:33.866Z,99.40
2019-05-06T04:09:13.204Z,99.30
2019-05-06T04:09:53.174Z,99.10
2019-05-06T04:10:33.859Z,99.00
2019-05-06T04:11:10.280Z,99.40
2019-05-06T04:11:48.676Z,99.40
2019-05-06T04:12:27.628Z,99.30
2019-05-06T04:13:06.005Z,99.10
2019-05-06T04:13:44.389Z,98.80
2019-05-06T04:14:23.814Z,98.70
2019-05-06T04:15:03.886Z,98.80
2019-05-06T04:16:13.807Z,99.30
2019-05-06T04:17:00.217Z,99.40
2019-05-06T04:17:48.716Z,99.10
2019-05-06T04:18:27.452Z,99.50
2019-05-06T04:19:23.934Z,99.40
2019-05-06T04:20:12.788Z,99.70
2019-05-06T04:21:03.762Z,99.30
2019-05-06T04:21:58.242Z,99.20
2019-05-06T04:22:54.079Z,98.90
2019-05-06T04:23:53.211Z,99.50
2019-05-06T04:24:53.707Z,98.90
2019-05-06T04:26:03.499Z,98.80
2019-05-06T04:26:53.156Z,99.40
2019-05-06T04:27:48.054Z,99.70
2019-05-06T04:28:29.034Z,99.80
2019-05-06T04:29:07.511Z,99.70
2019-05-06T04:29:46.037Z,99.90
2019-05-06T04:30:24.667Z,99.90
2019-05-06T04:31:03.107Z,99.90
2019-05-06T04:31:43.537Z,99.90
2019-05-06T04:32:23.336Z,99.90
2019-05-06T04:33:03.274Z,99.90
2019-05-06T04:33:41.285Z,99.80
2019-05-06T04:34:20.742Z,99.80
2019-05-06T04:34:59.490Z,99.80
2019-05-06T04:35:37.833Z,99.80
2019-05-06T04:36:16.165Z,99.60
2019-05-06T04:36:54.556Z,99.50
2019-05-06T04:37:33.847Z,99.30
2019-05-06T04:38:13.994Z,99.50
2019-05-06T04:38:53.925Z,99.40
2019-05-06T04:39:33.065Z,99.10
2019-05-06T04:40:12.928Z,99.10
2019-05-06T04:40:53.931Z,99.60
2019-05-06T04:41:34.153Z,99.70
2019-05-06T04:42:13.768Z,99.80
2019-05-06T04:42:52.779Z,99.90
2019-05-06T04:43:33.585Z,99.90
2019-05-06T04:44:13.817Z,99.80
2019-05-06T04:44:53.103Z,99.80
2019-05-06T04:45:33.431Z,99.90
2019-05-06T04:46:13.663Z,99.80
2019-05-06T04:46:54.072Z,99.70
2019-05-06T04:47:32.756Z,99.50
2019-05-06T04:48:10.457Z,99.90
2019-05-06T04:48:49.156Z,99.90
2019-05-06T04:49:27.654Z,99.90
2019-05-06T04:50:05.961Z,99.80
2019-05-06T04:50:44.647Z,99.80
2019-05-06T04:51:24.715Z,99.70
2019-05-06T04:52:03.761Z,99.70
2019-05-06T04:52:43.197Z,99.90
2019-05-06T04:53:26.456Z,99.90
2019-05-06T04:54:04.243Z,99.90
2019-05-06T04:54:43.969Z,99.90
2019-05-06T04:55:22.630Z,99.90
2019-05-06T04:56:03.803Z,99.80
2019-05-06T04:56:43.840Z,99.70
2019-05-06T04:57:23.799Z,99.40
2019-05-06T04:58:03.949Z,99.20
2019-05-06T04:58:42.873Z,99.40
2019-05-06T04:59:23.213Z,99.10
2019-05-06T05:00:03.957Z,99.20
2019-05-06T05:00:44.067Z,99.30
2019-05-06T05:01:23.150Z,99.20
2019-05-06T05:02:02.687Z,99.00
2019-05-06T05:02:45.840Z,99.00
2019-05-06T05:03:22.633Z,99.60
2019-05-06T05:04:03.285Z,99.40
2019-05-06T05:04:43.088Z,99.60
2019-05-06T05:05:22.604Z,99.70
2019-05-06T05:06:03.031Z,99.90
2019-05-06T05:06:39.940Z,99.90
2019-05-06T05:07:18.387Z,99.90
2019-05-06T05:07:56.790Z,99.90
2019-05-06T05:08:42.716Z,99.90
2019-05-06T05:09:23.077Z,99.90
2019-05-06T05:10:05.842Z,99.90
2019-05-06T05:10:58.433Z,99.90
2019-05-06T05:11:58.614Z,99.90
2019-05-06T05:12:45.415Z,99.90
2019-05-06T05:13:32.912Z,99.90
2019-05-06T05:14:29.301Z,99.90
2019-05-06T05:15:25.738Z,99.90
2019-05-06T05:16:19.594Z,99.90
2019-05-06T05:17:32.961Z,99.90
2019-05-06T05:18:17.610Z,99.90
2019-05-06T05:18:59.429Z,99.90
2019-05-06T05:19:37.825Z,99.90
2019-05-06T05:20:16.155Z,99.90
2019-05-06T05:20:54.506Z,99.90
2019-05-06T05:21:33.014Z,99.50
2019-05-06T05:22:12.449Z,99.60
2019-05-06T05:22:52.747Z,99.30
2019-05-06T05:23:31.936Z,99.40
2019-05-06T05:24:12.018Z,99.50
2019-05-06T05:24:52.171Z,99.50
2019-05-06T05:25:30.454Z,99.50
2019-05-06T05:26:09.265Z,99.50
2019-05-06T05:26:47.817Z,99.50
2019-05-06T05:27:26.221Z,99.60
2019-05-06T05:28:04.864Z,99.70
2019-05-06T05:28:43.216Z,99.60
2019-05-06T05:29:22.884Z,99.60
2019-05-06T05:30:01.933Z,99.50
2019-05-06T05:30:42.789Z,99.50
2019-05-06T05:31:22.887Z,99.40
2019-05-06T05:32:02.225Z,99.40
2019-05-06T05:32:42.646Z,99.40
2019-05-06T05:33:22.354Z,99.30
2019-05-06T05:34:02.114Z,99.20
2019-05-06T05:34:40.908Z,99.00
2019-05-06T05:35:19.562Z,98.90
2019-05-06T05:35:57.951Z,99.30
2019-05-06T05:36:36.298Z,99.30
2019-05-06T05:37:14.786Z,99.30
2019-05-06T05:37:53.179Z,99.30
2019-05-06T05:38:32.024Z,99.30
2019-05-06T05:39:12.460Z,99.70
2019-05-06T05:39:51.997Z,99.90
2019-05-06T05:40:32.073Z,99.80
2019-05-06T05:41:12.009Z,99.70
2019-05-06T05:41:52.020Z,99.80
2019-05-06T05:42:39.239Z,99.90
2019-05-06T05:43:32.643Z,99.90
2019-05-06T05:44:23.175Z,99.90
2019-05-06T05:45:02.667Z,99.70
2019-05-06T05:45:42.403Z,99.90
2019-05-06T05:46:21.880Z,99.90
2019-05-06T05:47:00.350Z,99.90
2019-05-06T05:47:38.733Z,99.70
2019-05-06T05:48:29.801Z,99.60
2019-05-06T05:49:35.009Z,99.40
2019-05-06T05:50:38.197Z,99.90
2019-05-06T05:51:16.556Z,99.90
2019-05-06T05:51:55.101Z,99.90
2019-05-06T05:52:33.492Z,99.90
2019-05-06T05:53:12.146Z,99.90
2019-05-06T05:53:52.296Z,99.90
2019-05-06T05:54:32.973Z,99.90
2019-05-06T05:55:12.063Z,99.60
2019-05-06T05:55:50.322Z,99.60
2019-05-06T05:56:28.760Z,99.90
2019-05-06T05:57:07.176Z,99.90
2019-05-06T05:57:45.541Z,99.90
2019-05-06T05:58:24.899Z,99.80
2019-05-06T05:59:03.674Z,99.60
2019-05-06T05:59:42.238Z,99.40
2019-05-06T06:00:22.468Z,99.50
2019-05-06T06:01:00.852Z,99.80
2019-05-06T06:01:39.212Z,99.90
2019-05-06T06:02:17.637Z,99.90
2019-05-06T06:02:56.023Z,99.90
2019-05-06T06:03:34.392Z,99.90
2019-05-06T06:04:13.094Z,99.90
2019-05-06T06:04:57.090Z,99.90
2019-05-06T06:05:33.007Z,99.80
2019-05-06T06:06:12.650Z,99.40
2019-05-06T06:06:51.982Z,99.40
2019-05-06T06:07:32.635Z,99.40
2019-05-06T06:08:12.830Z,99.50
2019-05-06T06:08:52.115Z,99.50
2019-05-06T06:09:32.901Z,99.50
2019-05-06T06:10:19.596Z,99.50
2019-05-06T06:11:04.951Z,99.60
2019-05-06T06:11:54.315Z,99.70
2019-05-06T06:12:32.781Z,99.50
2019-05-06T06:13:12.763Z,99.60
2019-05-06T06:13:52.279Z,99.50
2019-05-06T06:14:56.218Z,99.90
2019-05-06T06:15:52.395Z,99.90
2019-05-06T06:17:02.012Z,99.90
2019-05-06T06:17:51.919Z,99.60
2019-05-06T06:18:42.979Z,99.30
2019-05-06T06:19:29.769Z,99.30
2019-05-06T06:20:26.473Z,99.40
2019-05-06T06:21:37.658Z,99.60
2019-05-06T06:22:19.932Z,99.50
2019-05-06T06:23:00.125Z,99.10
2019-05-06T06:23:41.981Z,99.50
2019-05-06T06:24:32.049Z,99.50
2019-05-06T06:25:13.992Z,99.40
2019-05-06T06:25:49.854Z,99.40
2019-05-06T06:26:28.246Z,99.20
2019-05-06T06:27:06.645Z,99.20
2019-05-06T06:27:52.069Z,99.10
2019-05-06T06:28:32.744Z,99.10
2019-05-06T06:29:12.367Z,99.90
2019-05-06T06:29:52.566Z,99.90
2019-05-06T06:30:36.449Z,99.90
2019-05-06T06:31:28.561Z,99.90
2019-05-06T06:32:23.308Z,99.90
2019-05-06T06:33:02.607Z,99.80
2019-05-06T06:33:42.884Z,99.90
2019-05-06T06:34:42.709Z,99.90
2019-05-06T06:35:28.832Z,99.90
2019-05-06T06:36:28.003Z,99.90
2019-05-06T06:37:30.225Z,99.80
2019-05-06T06:38:19.465Z,99.60
2019-05-06T06:39:02.168Z,99.50
2019-05-06T06:39:43.966Z,99.90
2019-05-06T06:40:25.582Z,99.90
2019-05-06T06:41:04.028Z,99.70
2019-05-06T06:41:42.481Z,99.70
2019-05-06T06:42:22.211Z,99.80
2019-05-06T06:43:04.426Z,99.60
2019-05-06T06:43:42.914Z,99.70
2019-05-06T06:44:23.620Z,99.70
2019-05-06T06:45:03.528Z,99.90
2019-05-06T06:45:42.154Z,99.50
2019-05-06T06:46:22.360Z,99.90
2019-05-06T06:47:02.096Z,99.90
2019-05-06T06:47:42.388Z,99.90
2019-05-06T06:48:20.488Z,99.90
2019-05-06T06:48:58.855Z,99.90
2019-05-06T06:49:37.218Z,99.90
2019-05-06T06:50:15.689Z,99.90
2019-05-06T06:50:54.078Z,99.90
2019-05-06T06:51:33.051Z,99.90
2019-05-06T06:52:14.717Z,99.90
2019-05-06T06:52:52.531Z,99.90
2019-05-06T06:53:32.706Z,99.90
2019-05-06T06:54:12.343Z,99.90
2019-05-06T06:54:52.733Z,99.80
2019-05-06T06:55:31.876Z,99.90
2019-05-06T06:56:26.639Z,99.90
2019-05-06T06:57:23.032Z,99.80
2019-05-06T06:58:12.018Z,99.70
2019-05-06T06:59:23.795Z,99.70
2019-05-06T07:00:35.333Z,99.60
2019-05-06T07:01:34.505Z,99.90
2019-05-06T07:02:25.766Z,99.90
2019-05-06T07:03:08.122Z,99.90
2019-05-06T07:04:11.283Z,99.90
2019-05-06T07:04:52.915Z,99.90
2019-05-06T07:05:44.668Z,99.90
2019-05-06T07:06:33.070Z,99.90
2019-05-06T07:07:12.933Z,99.90
2019-05-06T07:07:53.243Z,99.90
2019-05-06T07:08:36.768Z,99.90
2019-05-06T07:09:12.525Z,99.90
2019-05-06T07:09:52.621Z,99.90
2019-05-06T07:10:46.236Z,99.90
2019-05-06T07:11:24.708Z,99.90
2019-05-06T07:12:03.490Z,99.90
2019-05-06T07:12:42.721Z,99.90
2019-05-06T07:13:23.048Z,99.90
2019-05-06T07:14:02.641Z,99.90
2019-05-06T07:14:42.827Z,99.90
2019-05-06T07:15:22.226Z,99.90
2019-05-06T07:16:02.786Z,99.90
2019-05-06T07:16:42.881Z,99.90
2019-05-06T07:17:22.703Z,99.90
2019-05-06T07:18:02.331Z,99.90
2019-05-06T07:18:42.797Z,99.90
2019-05-06T07:19:29.064Z,99.90
2019-05-06T07:20:09.952Z,99.90
2019-05-06T07:21:09.142Z,99.90
2019-05-06T07:21:56.661Z,99.90
2019-05-06T07:22:44.003Z,99.90
2019-05-06T07:23:25.506Z,99.90
2019-05-06T07:24:03.881Z,99.90
2019-05-06T07:24:43.092Z,99.90
2019-05-06T07:25:22.637Z,99.90
2019-05-06T07:26:03.051Z,99.90
2019-05-06T07:26:52.421Z,99.90
2019-05-06T07:27:32.341Z,99.90
2019-05-06T07:28:10.496Z,99.90
2019-05-06T07:28:48.874Z,99.90
2019-05-06T07:29:27.291Z,99.90
2019-05-06T07:30:05.641Z,99.90
2019-05-06T07:30:44.027Z,99.90
2019-05-06T07:31:25.876Z,99.90
2019-05-06T07:32:02.678Z,99.90
2019-05-06T07:32:42.438Z,99.90
2019-05-06T07:33:22.950Z,99.90
2019-05-06T07:34:02.703Z,99.90
2019-05-06T07:34:42.017Z,99.90
2019-05-06T07:35:22.421Z,99.90
2019-05-06T07:36:02.118Z,99.90
2019-05-06T07:36:40.261Z,99.90
2019-05-06T07:37:18.621Z,99.90
2019-05-06T07:37:57.044Z,99.90
2019-05-06T07:38:36.825Z,99.90
2019-05-06T07:39:15.678Z,99.90
2019-05-06T07:39:54.208Z,99.90
2019-05-06T07:40:32.854Z,99.90
2019-05-06T07:41:15.932Z,99.90
2019-05-06T07:41:57.120Z,99.90
2019-05-06T07:42:43.071Z,99.90
2019-05-06T07:43:48.391Z,99.90
2019-05-06T07:44:33.832Z,99.90
2019-05-06T07:45:26.002Z,99.90
2019-05-06T07:46:08.483Z,99.90
2019-05-06T07:47:06.603Z,99.90
2019-05-06T07:47:59.524Z,99.90
2019-05-06T07:48:37.974Z,99.90
2019-05-06T07:49:16.427Z,99.90
2019-05-06T07:49:54.755Z,99.90
2019-05-06T07:50:33.301Z,99.90
2019-05-06T07:51:12.464Z,99.90
2019-05-06T07:51:52.921Z,99.90
2019-05-06T07:52:32.580Z,99.90
2019-05-06T07:53:13.418Z,99.90
2019-05-06T07:53:52.437Z,99.90
2019-05-06T07:54:32.840Z,99.90
2019-05-06T07:55:11.985Z,99.90
2019-05-06T07:55:52.357Z,99.90
2019-05-06T07:56:32.187Z,99.90
2019-05-06T07:57:12.754Z,99.90
2019-05-06T07:57:52.553Z,99.90
2019-05-06T07:58:32.274Z,99.90
2019-05-06T07:59:12.786Z,99.90
2019-05-06T07:59:52.553Z,99.90
2019-05-06T08:00:32.752Z,99.90
2019-05-06T08:01:13.266Z,99.90
2019-05-06T08:01:50.563Z,99.90
2019-05-06T08:02:29.103Z,99.90
2019-05-06T08:03:07.701Z,99.90
2019-05-06T08:03:46.076Z,99.90
2019-05-06T08:04:24.483Z,99.90
2019-05-06T08:05:02.984Z,99.90
2019-05-06T08:05:52.774Z,99.90
2019-05-06T08:06:22.639Z,99.90
2019-05-06T08:07:03.177Z,99.90
2019-05-06T08:07:42.243Z,99.90
2019-05-06T08:08:22.867Z,99.90
2019-05-06T08:09:03.106Z,99.90
2019-05-06T08:09:42.238Z,99.90
2019-05-06T08:10:22.035Z,99.90
2019-05-06T08:11:02.486Z,99.90
2019-05-06T08:11:42.085Z,99.90
2019-05-06T08:12:22.227Z,99.90
2019-05-06T08:13:02.482Z,99.90
2019-05-06T08:13:39.844Z,99.90
2019-05-06T08:14:18.314Z,99.90
2019-05-06T08:14:56.849Z,99.90
2019-05-06T08:15:35.486Z,99.90
2019-05-06T08:16:13.859Z,99.90
2019-05-06T08:17:02.250Z,99.90
2019-05-06T08:17:42.695Z,99.90
2019-05-06T08:18:21.947Z,99.90
2019-05-06T08:19:02.658Z,99.90
2019-05-06T08:19:42.272Z,99.90
2019-05-06T08:20:22.178Z,99.90
2019-05-06T08:21:02.502Z,99.90
2019-05-06T08:21:42.803Z,99.90
2019-05-06T08:22:24.361Z,99.90
2019-05-06T08:23:19.427Z,99.90
2019-05-06T08:23:57.920Z,99.90
2019-05-06T08:24:36.306Z,99.90
2019-05-06T08:25:14.686Z,99.90
2019-05-06T08:26:08.364Z,99.90
2019-05-06T08:26:33.746Z,99.90
2019-05-06T08:27:12.380Z,99.90
2019-05-06T08:27:53.050Z,99.90
2019-05-06T08:28:38.660Z,99.90
2019-05-06T08:29:12.144Z,99.90
2019-05-06T08:29:52.483Z,99.90
2019-05-06T08:30:32.264Z,99.90
2019-05-06T08:31:10.016Z,99.90
2019-05-06T08:31:48.385Z,99.90
2019-05-06T08:32:26.818Z,99.90
2019-05-06T08:33:05.218Z,99.90
2019-05-06T08:33:43.637Z,99.90
2019-05-06T08:34:22.581Z,99.90
2019-05-06T08:35:03.134Z,99.90
2019-05-06T08:35:42.544Z,99.90
2019-05-06T08:36:27.867Z,99.90
2019-05-06T08:37:16.840Z,99.90
2019-05-06T08:37:55.315Z,99.90
2019-05-06T08:38:53.237Z,99.90
2019-05-06T08:39:32.633Z,99.90
2019-05-06T08:40:11.963Z,99.90
2019-05-06T08:40:52.416Z,99.90
2019-05-06T08:41:30.463Z,99.90
2019-05-06T08:42:09.080Z,99.90
2019-05-06T08:42:47.557Z,99.90
2019-05-06T08:43:25.913Z,99.90
2019-05-06T08:44:04.285Z,99.90
2019-05-06T08:44:42.804Z,99.90
2019-05-06T08:45:22.051Z,99.90
2019-05-06T08:46:03.047Z,99.90
2019-05-06T08:46:42.827Z,99.90
2019-05-06T08:47:22.221Z,99.90
2019-05-06T08:48:00.203Z,99.90
2019-05-06T08:48:38.613Z,99.90
2019-05-06T08:49:16.981Z,99.90
2019-05-06T08:50:21.823Z,99.90
2019-05-06T08:51:22.368Z,99.90
2019-05-06T08:52:07.883Z,99.90
2019-05-06T08:53:05.011Z,99.90
2019-05-06T08:53:50.683Z,99.90
2019-05-06T08:54:36.877Z,99.90
2019-05-06T08:55:16.900Z,99.90
2019-05-06T08:55:56.015Z,99.90
2019-05-06T08:56:34.352Z,99.90
2019-05-06T08:57:12.699Z,99.90
2019-05-06T08:57:52.736Z,99.90
2019-05-06T08:58:52.807Z,99.90
2019-05-06T08:59:32.150Z,99.90
2019-05-06T09:00:12.753Z,99.90